MDPP/POP METAR and TAF weather

Enter ICAO airport designator
Station Type Date Time Source
MDPP METAR 2019/12/08 03:00 UTC NOAA

MDPP 080300Z 00000KT 8000-RA FEW014CB BKN015 OVC070 23/23 Q1016 RETS CB/NE/E


Station Type Date Time Source
MDPP Decoded METAR 2019/12/08 03:00 UTC NOAA

Puerto Plata International, Dominican Republic (MDPP) 19-45N 070-33W
Dec 07, 2019 - 10:00 PM EST / 2019.12.08 0300 UTC
Wind: Calm:0
Sky conditions: overcast
Weather: Cumulonimbus clouds observed
Temperature: 73 F (23 C)
Dew Point: 73 F (23 C)
Relative Humidity: 100%
Pressure (altimeter): 30.00 in. Hg (1016 hPa)
ob: MDPP 080300Z 00000KT 8000-RA FEW014CB BKN015 OVC070 23/23 Q1016 RETS CB/NE/E
cycle: 3

Station Type Date Time Source
MDPP TAF 2019/12/07 18:14 UTC NOAA

TAF MDPP 071600Z 0718/0818 06005KT 9999 FEW020 PROB30 0800/0806 7000 -TSRA FEW016CB BKN016 SCT070

Example: see airport list